createdAt,value
2017-12-03T00:01:02.941Z,53.27
2017-12-03T00:03:30.364Z,51.33
2017-12-03T00:05:57.792Z,47.50
2017-12-03T00:08:26.018Z,46.97
2017-12-03T00:10:53.444Z,49.53
2017-12-03T00:13:21.653Z,50.20
2017-12-03T00:15:49.976Z,47.70
2017-12-03T00:18:17.432Z,48.47
2017-12-03T00:20:44.856Z,50.10
2017-12-03T00:23:12.349Z,51.03
2017-12-03T00:25:39.791Z,49.00
2017-12-03T00:28:07.224Z,48.13
2017-12-03T00:30:35.424Z,48.93
2017-12-03T00:33:02.924Z,47.47
2017-12-03T00:35:30.453Z,45.13
2017-12-03T00:37:57.903Z,46.40
2017-12-03T00:40:25.332Z,48.80
2017-12-03T00:42:52.767Z,48.80
2017-12-03T00:45:20.981Z,48.77
2017-12-03T00:47:48.452Z,48.00
2017-12-03T00:50:15.885Z,48.80
2017-12-03T00:52:43.372Z,50.37
2017-12-03T00:55:10.824Z,50.97
2017-12-03T00:57:38.276Z,49.53
2017-12-03T01:00:05.728Z,46.07
2017-12-03T01:02:33.156Z,49.33
2017-12-03T01:05:01.359Z,48.23
2017-12-03T01:07:28.804Z,48.50
2017-12-03T01:09:56.312Z,48.80
2017-12-03T01:12:23.716Z,49.13
2017-12-03T01:14:51.156Z,47.27
2017-12-03T01:17:19.349Z,45.37
2017-12-03T01:19:46.800Z,50.80
2017-12-03T01:22:15.198Z,46.97
2017-12-03T01:24:42.604Z,48.87
2017-12-03T01:27:10.116Z,47.80
2017-12-03T01:29:37.564Z,48.03
2017-12-03T01:32:04.999Z,47.60
2017-12-03T01:34:33.199Z,49.47
2017-12-03T01:37:00.636Z,49.37
2017-12-03T01:39:28.136Z,48.87
2017-12-03T01:41:55.581Z,48.47
2017-12-03T01:44:23.027Z,50.40
2017-12-03T01:46:50.497Z,46.93
2017-12-03T01:49:17.924Z,47.30
2017-12-03T01:51:45.369Z,44.53
2017-12-03T01:54:13.556Z,48.33
2017-12-03T01:56:40.992Z,49.40
2017-12-03T01:59:09.205Z,47.53
2017-12-03T02:01:36.668Z,48.30
2017-12-03T02:04:04.120Z,46.57
2017-12-03T02:06:31.568Z,46.97
2017-12-03T02:08:58.988Z,48.20
2017-12-03T02:11:26.425Z,49.00
2017-12-03T02:13:53.913Z,48.20
2017-12-03T02:16:21.376Z,48.20
2017-12-03T02:18:48.804Z,47.60
2017-12-03T02:21:16.292Z,47.43
2017-12-03T02:23:43.717Z,48.30
2017-12-03T02:26:11.206Z,51.13
2017-12-03T02:28:38.649Z,50.90
2017-12-03T02:31:06.085Z,50.97
2017-12-03T02:33:34.285Z,47.43
2017-12-03T02:36:01.749Z,51.40
2017-12-03T02:38:29.172Z,47.33
2017-12-03T02:40:56.673Z,47.50
2017-12-03T02:43:24.216Z,48.37
2017-12-03T02:45:51.665Z,49.13
2017-12-03T02:48:19.141Z,48.63
2017-12-03T02:50:46.582Z,49.47
2017-12-03T02:53:14.013Z,50.33
2017-12-03T02:55:41.444Z,49.40
2017-12-03T02:58:08.890Z,47.93
2017-12-03T03:00:36.317Z,49.83
2017-12-03T03:03:03.752Z,51.00
2017-12-03T03:05:31.196Z,49.10
2017-12-03T03:07:59.398Z,48.90
2017-12-03T03:10:26.828Z,48.53
2017-12-03T03:12:54.324Z,48.00
2017-12-03T03:15:21.753Z,48.73
2017-12-03T03:17:49.176Z,48.10
2017-12-03T03:20:16.694Z,47.23
2017-12-03T03:22:44.124Z,49.07
2017-12-03T03:25:11.562Z,49.63
2017-12-03T03:27:39.784Z,45.83
2017-12-03T03:30:07.219Z,47.10
2017-12-03T03:32:34.642Z,47.57
2017-12-03T03:35:02.081Z,48.73
2017-12-03T03:37:29.518Z,47.60
2017-12-03T03:39:56.965Z,49.07
2017-12-03T03:42:24.396Z,47.83
2017-12-03T03:44:51.834Z,49.20
2017-12-03T03:47:20.032Z,45.87
2017-12-03T03:49:47.536Z,48.17
2017-12-03T03:52:15.064Z,47.70
2017-12-03T03:54:42.532Z,48.67
2017-12-03T03:57:09.976Z,46.40
2017-12-03T03:59:37.408Z,47.27
2017-12-03T04:02:04.892Z,45.90
2017-12-03T04:04:32.359Z,46.97
2017-12-03T04:06:59.788Z,46.80
2017-12-03T04:09:27.217Z,46.73
2017-12-03T04:11:55.420Z,47.43
2017-12-03T04:14:22.948Z,47.87
2017-12-03T04:16:51.144Z,49.20
2017-12-03T04:19:18.580Z,50.23
2017-12-03T04:21:46.016Z,49.53
2017-12-03T04:24:13.548Z,42.53
2017-12-03T04:26:40.988Z,46.73
2017-12-03T04:29:08.471Z,48.97
2017-12-03T04:31:35.888Z,47.03
2017-12-03T04:34:03.376Z,47.53
2017-12-03T04:36:30.832Z,49.80
2017-12-03T04:38:58.257Z,46.13
2017-12-03T04:41:25.692Z,49.50
2017-12-03T04:43:53.205Z,45.13
2017-12-03T04:46:20.632Z,48.87
2017-12-03T04:48:48.072Z,49.63
2017-12-03T04:51:16.294Z,46.83
2017-12-03T04:53:43.753Z,46.37
2017-12-03T04:56:11.205Z,47.27
2017-12-03T04:58:38.636Z,49.57
2017-12-03T05:01:06.121Z,48.50
2017-12-03T05:03:33.584Z,48.17
2017-12-03T05:06:01.038Z,45.83
2017-12-03T05:08:28.468Z,48.77
2017-12-03T05:10:55.908Z,48.50
2017-12-03T05:13:24.128Z,45.43
2017-12-03T05:15:51.556Z,45.93
2017-12-03T05:18:18.997Z,46.03
2017-12-03T05:20:47.217Z,49.87
2017-12-03T05:23:14.645Z,48.07
2017-12-03T05:25:42.085Z,48.50
2017-12-03T05:28:10.311Z,45.90
2017-12-03T05:30:37.760Z,48.67
2017-12-03T05:33:05.194Z,46.77
2017-12-03T05:35:32.624Z,49.13
2017-12-03T05:38:00.849Z,49.30
2017-12-03T05:40:28.296Z,46.83
2017-12-03T05:42:55.761Z,47.57
2017-12-03T05:45:23.188Z,48.67
2017-12-03T05:47:50.672Z,47.43
2017-12-03T05:50:18.987Z,49.23
2017-12-03T05:52:46.513Z,48.90
2017-12-03T05:55:13.964Z,47.40
2017-12-03T05:57:41.400Z,48.07
2017-12-03T06:00:08.879Z,46.80
2017-12-03T06:02:36.330Z,45.77
2017-12-03T06:05:03.761Z,47.27
2017-12-03T06:07:31.962Z,48.07
2017-12-03T06:09:59.404Z,48.27
2017-12-03T06:12:26.828Z,48.50
2017-12-03T06:14:54.260Z,47.33
2017-12-03T06:17:21.714Z,47.03
2017-12-03T06:19:49.146Z,45.67
2017-12-03T06:22:16.576Z,47.50
2017-12-03T06:24:44.014Z,46.63
2017-12-03T06:27:11.444Z,46.57
2017-12-03T06:29:38.980Z,49.47
2017-12-03T06:32:06.436Z,46.30
2017-12-03T06:34:33.896Z,46.33
2017-12-03T06:37:01.353Z,47.03
2017-12-03T06:39:28.816Z,43.33
2017-12-03T06:41:56.248Z,42.17
2017-12-03T06:44:23.738Z,44.67
2017-12-03T06:46:51.280Z,44.83
2017-12-03T06:49:18.740Z,44.73
2017-12-03T06:51:46.173Z,46.00
2017-12-03T06:54:13.652Z,47.80
2017-12-03T06:56:41.108Z,44.40
2017-12-03T06:59:08.544Z,50.47
2017-12-03T07:01:35.984Z,47.83
2017-12-03T07:04:04.196Z,48.73
2017-12-03T07:06:31.632Z,46.20
2017-12-03T07:08:59.069Z,46.50
2017-12-03T07:11:26.506Z,44.87
2017-12-03T07:13:53.937Z,49.43
2017-12-03T07:16:21.388Z,46.43
2017-12-03T07:18:48.816Z,50.70
2017-12-03T07:21:16.245Z,45.20
2017-12-03T07:23:44.462Z,47.90
2017-12-03T07:26:11.886Z,47.60
2017-12-03T07:28:40.097Z,47.87
2017-12-03T07:31:07.560Z,49.30
2017-12-03T07:33:34.993Z,48.37
2017-12-03T07:36:02.434Z,45.50
2017-12-03T07:38:30.639Z,48.70
2017-12-03T07:40:58.072Z,46.40
2017-12-03T07:43:25.500Z,46.87
2017-12-03T07:45:53.029Z,46.03
2017-12-03T07:48:20.484Z,47.27
2017-12-03T07:50:47.933Z,45.30
2017-12-03T07:53:15.395Z,46.37
2017-12-03T07:55:42.853Z,47.90
2017-12-03T07:58:10.311Z,45.63
2017-12-03T08:00:37.772Z,44.57
2017-12-03T08:03:05.214Z,45.83
2017-12-03T08:05:32.649Z,46.10
2017-12-03T08:08:00.143Z,43.50
2017-12-03T08:10:27.593Z,44.00
2017-12-03T08:12:55.053Z,46.13
2017-12-03T08:15:22.498Z,46.40
2017-12-03T08:17:49.928Z,45.47
2017-12-03T08:20:17.360Z,46.73
2017-12-03T08:22:44.801Z,47.73
2017-12-03T08:25:13.736Z,45.43
2017-12-03T08:27:41.225Z,45.27
2017-12-03T08:30:08.672Z,46.80
2017-12-03T08:32:36.254Z,46.53
2017-12-03T08:35:04.406Z,46.97
2017-12-03T08:37:31.854Z,49.37
2017-12-03T08:39:59.280Z,49.07
2017-12-03T08:42:27.516Z,46.97
2017-12-03T08:44:54.966Z,47.33
2017-12-03T08:47:22.424Z,50.53
2017-12-03T08:49:49.852Z,50.60
2017-12-03T08:52:17.289Z,50.07
2017-12-03T08:54:45.489Z,51.90
2017-12-03T08:57:12.921Z,51.23
2017-12-03T08:59:41.145Z,53.90
2017-12-03T09:02:08.580Z,50.50
2017-12-03T09:04:36.028Z,49.10
2017-12-03T09:07:03.513Z,53.97
2017-12-03T09:09:30.977Z,53.57
2017-12-03T09:11:58.400Z,50.13
2017-12-03T09:14:25.847Z,51.93
2017-12-03T09:16:54.061Z,51.57
2017-12-03T09:19:21.522Z,52.27
2017-12-03T09:21:48.957Z,48.60
2017-12-03T09:24:16.440Z,50.40
2017-12-03T09:26:43.869Z,53.90
2017-12-03T09:29:12.060Z,51.30
2017-12-03T09:31:39.470Z,49.90
2017-12-03T09:34:07.668Z,48.93
2017-12-03T09:36:35.156Z,50.70
2017-12-03T09:39:03.352Z,49.53
2017-12-03T09:41:30.845Z,52.20
2017-12-03T09:43:58.293Z,50.40
2017-12-03T09:46:25.752Z,49.07
2017-12-03T09:48:53.300Z,52.73
2017-12-03T09:51:20.721Z,49.80
2017-12-03T09:53:48.917Z,52.03
2017-12-03T09:56:16.346Z,57.23
2017-12-03T09:58:44.564Z,52.77
2017-12-03T10:01:12.032Z,52.10
2017-12-03T10:03:39.460Z,52.83
2017-12-03T10:06:06.948Z,51.57
2017-12-03T10:08:34.376Z,54.03
2017-12-03T10:11:01.861Z,56.50
2017-12-03T10:13:29.308Z,52.37
2017-12-03T10:15:56.795Z,56.17
2017-12-03T10:18:24.230Z,51.13
2017-12-03T10:20:51.660Z,51.53
2017-12-03T10:23:19.153Z,51.00
2017-12-03T10:25:46.613Z,53.07
2017-12-03T10:28:14.169Z,49.53
2017-12-03T10:30:41.610Z,51.07
2017-12-03T10:33:09.033Z,50.53
2017-12-03T10:35:37.245Z,51.33
2017-12-03T10:38:18.424Z,49.40
2017-12-03T10:40:45.880Z,50.07
2017-12-03T10:43:13.329Z,53.63
2017-12-03T10:45:40.804Z,50.93
2017-12-03T10:48:08.253Z,52.80
2017-12-03T10:50:35.684Z,53.23
2017-12-03T10:53:03.112Z,52.97
2017-12-03T10:55:31.331Z,60.20
2017-12-03T10:57:58.802Z,50.53
2017-12-03T11:00:26.259Z,54.13
2017-12-03T11:02:53.704Z,53.03
2017-12-03T11:05:21.135Z,54.07
2017-12-03T11:07:49.347Z,53.87
2017-12-03T11:10:16.826Z,51.47
2017-12-03T11:12:44.264Z,52.57
2017-12-03T11:15:11.808Z,52.73
2017-12-03T11:17:39.280Z,55.07
2017-12-03T11:20:06.720Z,51.97
2017-12-03T11:22:34.141Z,53.50
2017-12-03T11:25:02.352Z,54.40
2017-12-03T11:27:29.829Z,53.23
2017-12-03T11:29:57.279Z,58.10
2017-12-03T11:32:24.724Z,57.23
2017-12-03T11:34:52.158Z,60.10
2017-12-03T11:37:20.481Z,57.40
2017-12-03T11:39:47.920Z,62.57
2017-12-03T11:42:15.392Z,61.80
2017-12-03T11:44:42.817Z,62.43
2017-12-03T11:47:10.299Z,60.00
2017-12-03T11:49:37.744Z,60.30
2017-12-03T11:52:05.248Z,60.10
2017-12-03T11:54:32.685Z,59.70
2017-12-03T11:57:00.115Z,56.67
2017-12-03T11:59:27.540Z,54.87
2017-12-03T12:01:55.762Z,50.40
2017-12-03T12:04:23.188Z,57.70
2017-12-03T12:06:50.676Z,51.83
2017-12-03T12:09:18.133Z,47.10
2017-12-03T12:11:45.574Z,48.80
2017-12-03T12:14:13.003Z,46.93
2017-12-03T12:16:41.412Z,46.50
2017-12-03T12:19:08.816Z,40.30
2017-12-03T12:21:36.261Z,43.90
2017-12-03T12:24:03.709Z,44.80
2017-12-03T12:26:31.146Z,40.43
2017-12-03T12:28:58.572Z,43.27
2017-12-03T12:31:26.021Z,44.80
2017-12-03T12:33:54.224Z,43.00
2017-12-03T12:36:21.656Z,40.47
2017-12-03T12:38:50.006Z,38.23
2017-12-03T12:41:17.421Z,37.57
2017-12-03T12:43:44.856Z,39.43
2017-12-03T12:46:12.332Z,39.97
2017-12-03T12:48:39.741Z,42.53
2017-12-03T12:51:07.939Z,45.17
2017-12-03T12:53:35.377Z,41.93
2017-12-03T12:56:03.580Z,40.43
2017-12-03T12:58:31.052Z,46.20
2017-12-03T13:00:58.516Z,48.33
2017-12-03T13:03:25.952Z,48.17
2017-12-03T13:05:53.817Z,47.43
2017-12-03T13:08:21.313Z,45.73
2017-12-03T13:10:48.852Z,43.97
2017-12-03T13:13:16.304Z,44.20
2017-12-03T13:15:43.732Z,45.53
2017-12-03T13:18:11.934Z,45.43
2017-12-03T13:20:39.396Z,44.70
2017-12-03T13:23:06.877Z,43.93
2017-12-03T13:25:34.309Z,40.73
2017-12-03T13:28:01.774Z,41.23
2017-12-03T13:30:29.219Z,42.37
2017-12-03T13:32:56.689Z,44.63
2017-12-03T13:35:24.121Z,40.67
2017-12-03T13:37:51.581Z,41.73
2017-12-03T13:40:19.012Z,41.10
2017-12-03T13:42:47.212Z,42.17
2017-12-03T13:45:14.652Z,43.80
2017-12-03T13:47:42.868Z,43.20
2017-12-03T13:50:10.301Z,40.93
2017-12-03T13:52:37.740Z,42.83
2017-12-03T13:55:06.045Z,44.80
2017-12-03T13:57:33.512Z,43.53
2017-12-03T14:00:00.959Z,45.97
2017-12-03T14:02:28.386Z,44.03
2017-12-03T14:04:56.589Z,45.40
2017-12-03T14:07:24.037Z,44.43
2017-12-03T14:09:51.465Z,47.30
2017-12-03T14:12:19.665Z,46.73
2017-12-03T14:14:47.173Z,51.70
2017-12-03T14:17:14.619Z,52.73
2017-12-03T14:19:42.061Z,52.47
2017-12-03T14:22:09.513Z,56.40
2017-12-03T14:24:36.953Z,52.43
2017-12-03T14:27:04.376Z,57.53
2017-12-03T14:29:32.585Z,56.23
2017-12-03T14:32:00.067Z,52.47
2017-12-03T14:34:27.520Z,54.23
2017-12-03T14:36:54.981Z,58.30
2017-12-03T14:39:22.434Z,55.73
2017-12-03T14:41:49.891Z,61.43
2017-12-03T14:44:17.333Z,57.53
2017-12-03T14:46:44.776Z,59.27
2017-12-03T14:49:12.977Z,64.63
2017-12-03T14:51:40.441Z,62.60
2017-12-03T14:54:07.882Z,65.73
2017-12-03T14:56:35.353Z,61.27
2017-12-03T14:59:02.796Z,63.77
2017-12-03T15:01:30.224Z,67.33
2017-12-03T15:03:58.436Z,69.40
2017-12-03T15:06:25.897Z,65.40
2017-12-03T15:08:53.350Z,70.67
2017-12-03T15:11:20.786Z,73.30
2017-12-03T15:13:48.216Z,71.33
2017-12-03T15:16:16.413Z,73.73
2017-12-03T15:18:43.900Z,67.90
2017-12-03T15:21:11.465Z,70.37
2017-12-03T15:23:38.917Z,68.73
2017-12-03T15:26:06.365Z,69.93
2017-12-03T15:28:33.832Z,63.60
2017-12-03T15:31:01.265Z,63.20
2017-12-03T15:33:28.748Z,63.43
2017-12-03T15:35:56.305Z,62.00
2017-12-03T15:38:23.761Z,63.77
2017-12-03T15:40:51.189Z,62.70
2017-12-03T15:43:18.685Z,63.20
2017-12-03T15:45:46.119Z,59.83
2017-12-03T15:48:13.597Z,59.93
2017-12-03T15:50:41.150Z,60.30
2017-12-03T15:53:08.583Z,60.53
2017-12-03T15:55:36.085Z,60.60
2017-12-03T15:58:03.497Z,59.67
2017-12-03T16:00:30.932Z,57.53
2017-12-03T16:02:59.125Z,58.97
2017-12-03T16:05:26.745Z,57.63
2017-12-03T16:07:54.269Z,63.27
2017-12-03T16:10:21.736Z,74.73
2017-12-03T16:12:49.288Z,63.57
2017-12-03T16:15:16.734Z,61.63
2017-12-03T16:17:44.168Z,60.13
2017-12-03T16:20:11.657Z,65.40
2017-12-03T16:22:39.085Z,65.63
2017-12-03T16:25:06.579Z,67.20
2017-12-03T16:27:34.028Z,61.40
2017-12-03T16:30:01.485Z,68.10
2017-12-03T16:32:28.940Z,71.50
2017-12-03T16:34:56.385Z,64.30
2017-12-03T16:37:23.821Z,66.07
2017-12-03T16:39:52.028Z,74.60
2017-12-03T16:42:19.485Z,62.70
2017-12-03T16:44:46.912Z,71.70
2017-12-03T16:47:14.400Z,67.50
2017-12-03T16:49:41.863Z,69.83
2017-12-03T16:52:09.317Z,76.23
2017-12-03T16:54:36.781Z,76.07
2017-12-03T16:57:04.333Z,71.57
2017-12-03T16:59:31.765Z,80.13
2017-12-03T17:01:59.197Z,66.50
2017-12-03T17:04:27.406Z,67.80
2017-12-03T17:06:54.836Z,68.47
2017-12-03T17:09:23.041Z,75.70
2017-12-03T17:11:50.480Z,62.80
2017-12-03T17:14:17.965Z,67.37
2017-12-03T17:16:45.393Z,62.83
2017-12-03T17:19:12.881Z,64.33
2017-12-03T17:21:40.327Z,67.67
2017-12-03T17:24:07.762Z,72.17
2017-12-03T17:26:35.198Z,75.20
2017-12-03T17:29:03.424Z,81.37
2017-12-03T17:31:30.887Z,70.47
2017-12-03T17:33:58.333Z,73.93
2017-12-03T17:36:25.769Z,71.67
2017-12-03T17:38:53.258Z,70.90
2017-12-03T17:41:20.697Z,69.77
2017-12-03T17:43:48.170Z,71.83
2017-12-03T17:46:15.597Z,74.80
2017-12-03T17:48:43.053Z,67.10
2017-12-03T17:51:10.484Z,70.77
2017-12-03T17:53:38.706Z,66.57
2017-12-03T17:56:06.144Z,71.40
2017-12-03T17:58:33.572Z,83.73
2017-12-03T18:01:01.781Z,90.17
2017-12-03T18:03:29.260Z,85.13
2017-12-03T18:05:56.695Z,80.33
2017-12-03T18:08:24.126Z,88.83
2017-12-03T18:10:52.354Z,90.83
2017-12-03T18:13:19.805Z,79.47
2017-12-03T18:15:47.266Z,93.60
2017-12-03T18:18:14.708Z,81.57
2017-12-03T18:20:42.145Z,82.27
2017-12-03T18:23:09.572Z,77.73
2017-12-03T18:25:37.793Z,72.77
2017-12-03T18:28:05.212Z,67.30
2017-12-03T18:30:33.412Z,63.23
2017-12-03T18:33:00.860Z,64.77
2017-12-03T18:35:28.349Z,66.87
2017-12-03T18:37:55.780Z,64.50
2017-12-03T18:40:23.229Z,59.17
2017-12-03T18:42:51.425Z,59.07
2017-12-03T18:45:18.853Z,58.67
2017-12-03T18:47:47.069Z,53.23
2017-12-03T18:50:14.506Z,56.23
2017-12-03T18:52:41.929Z,55.27
2017-12-03T18:55:10.132Z,50.90
2017-12-03T18:57:37.584Z,54.93
2017-12-03T19:00:05.100Z,55.57
2017-12-03T19:02:32.591Z,55.30
2017-12-03T19:05:00.008Z,48.90
2017-12-03T19:07:27.461Z,51.93
2017-12-03T19:09:54.905Z,48.80
2017-12-03T19:12:22.453Z,48.73
2017-12-03T19:14:49.877Z,46.57
2017-12-03T19:17:18.091Z,44.77
2017-12-03T19:19:45.585Z,51.20
2017-12-03T19:22:13.013Z,45.03
2017-12-03T19:24:40.568Z,43.77
2017-12-03T19:27:08.017Z,42.20
2017-12-03T19:29:35.473Z,41.93
2017-12-03T19:32:02.897Z,42.80
2017-12-03T19:34:31.102Z,44.10
2017-12-03T19:36:58.588Z,43.30
2017-12-03T19:39:26.031Z,41.83
2017-12-03T19:41:53.457Z,37.60
2017-12-03T19:44:20.941Z,37.50
2017-12-03T19:46:48.392Z,29.60
2017-12-03T19:49:15.820Z,37.67
2017-12-03T19:51:44.030Z,44.00
2017-12-03T19:54:11.475Z,37.33
2017-12-03T19:56:38.936Z,40.87
2017-12-03T19:59:06.347Z,38.73
2017-12-03T20:01:34.572Z,39.00
2017-12-03T20:04:02.029Z,36.43
2017-12-03T20:06:29.489Z,38.00
2017-12-03T20:08:56.981Z,39.93
2017-12-03T20:11:24.441Z,39.93
2017-12-03T20:13:51.857Z,34.40
2017-12-03T20:16:19.307Z,36.80
2017-12-03T20:18:46.728Z,36.33
2017-12-03T20:21:14.924Z,32.73
2017-12-03T20:23:42.365Z,34.77
2017-12-03T20:26:10.566Z,34.83
2017-12-03T20:28:37.992Z,30.50
2017-12-03T20:31:06.201Z,26.23
2017-12-03T20:33:33.633Z,25.20
2017-12-03T20:36:01.061Z,24.27
2017-12-03T20:38:28.497Z,22.47
2017-12-03T20:40:55.929Z,20.73
2017-12-03T20:43:23.353Z,18.77
2017-12-03T20:45:51.569Z,18.43
2017-12-03T20:48:19.027Z,15.00
2017-12-03T20:50:46.458Z,16.87
2017-12-03T20:53:13.905Z,15.77
2017-12-03T20:55:41.332Z,16.83
2017-12-03T20:58:08.757Z,16.43
2017-12-03T21:00:36.310Z,14.80
2017-12-03T21:03:03.737Z,11.50
2017-12-03T21:05:31.166Z,12.30
2017-12-03T21:07:58.609Z,12.67
2017-12-03T21:10:26.041Z,14.23
2017-12-03T21:12:53.493Z,12.13
2017-12-03T21:15:20.941Z,11.30
2017-12-03T21:17:48.368Z,12.43
2017-12-03T21:20:16.589Z,12.13
2017-12-03T21:22:44.149Z,13.00
2017-12-03T21:25:11.580Z,11.00
2017-12-03T21:27:39.021Z,12.23
2017-12-03T21:30:07.333Z,13.43
2017-12-03T21:32:34.760Z,13.13
2017-12-03T21:35:02.188Z,13.70
2017-12-03T21:37:30.400Z,13.80
2017-12-03T21:39:57.973Z,11.03
2017-12-03T21:42:25.377Z,11.20
2017-12-03T21:44:53.584Z,10.03
2017-12-03T21:47:21.064Z,11.60
2017-12-03T21:49:48.497Z,11.47
2017-12-03T21:52:16.936Z,11.73
2017-12-03T21:54:44.374Z,11.43
2017-12-03T21:57:11.804Z,11.90
2017-12-03T21:59:39.244Z,11.03
2017-12-03T22:02:06.737Z,13.17
2017-12-03T22:04:34.173Z,11.47
2017-12-03T22:07:01.609Z,11.97
2017-12-03T22:09:29.811Z,11.70
2017-12-03T22:11:57.241Z,12.33
2017-12-03T22:14:25.553Z,12.43
2017-12-03T22:16:53.012Z,12.10
2017-12-03T22:19:21.208Z,11.67
2017-12-03T22:21:49.432Z,10.73
2017-12-03T22:24:16.925Z,11.87
2017-12-03T22:26:44.450Z,12.10
2017-12-03T22:29:11.890Z,12.17
2017-12-03T22:31:39.356Z,11.77
2017-12-03T22:34:06.784Z,13.23
2017-12-03T22:36:34.285Z,12.03
2017-12-03T22:39:01.720Z,12.87
2017-12-03T22:41:29.144Z,13.33
2017-12-03T22:43:57.473Z,14.90
2017-12-03T22:46:24.896Z,13.80
2017-12-03T22:48:52.377Z,13.03
2017-12-03T22:51:20.582Z,12.40
2017-12-03T22:53:48.064Z,11.40
2017-12-03T22:56:15.493Z,11.37
2017-12-03T22:58:42.973Z,11.37
2017-12-03T23:01:10.443Z,11.23
2017-12-03T23:03:37.868Z,11.43
2017-12-03T23:06:05.307Z,10.47
2017-12-03T23:08:33.531Z,9.03
2017-12-03T23:11:00.984Z,8.40
2017-12-03T23:13:28.437Z,8.67
2017-12-03T23:15:55.865Z,9.57
2017-12-03T23:18:23.325Z,8.77
2017-12-03T23:20:50.808Z,9.27
2017-12-03T23:23:18.232Z,9.27
2017-12-03T23:25:45.722Z,9.43
2017-12-03T23:28:13.152Z,9.73
2017-12-03T23:30:40.580Z,9.60
2017-12-03T23:33:08.087Z,7.97
2017-12-03T23:35:35.504Z,10.43
2017-12-03T23:38:03.718Z,9.17
2017-12-03T23:40:31.122Z,8.03
2017-12-03T23:42:58.565Z,8.23
2017-12-03T23:45:26.090Z,8.70
2017-12-03T23:47:53.552Z,8.17
2017-12-03T23:50:21.023Z,8.37
2017-12-03T23:52:48.415Z,7.67
2017-12-03T23:55:16.690Z,10.40
2017-12-03T23:57:44.208Z,9.00
